createdAt,value
2019-04-16T00:00:11.825Z,12.73
2019-04-16T00:02:36.513Z,13.63
2019-04-16T00:05:05.869Z,17.07
2019-04-16T00:07:34.141Z,13.97
2019-04-16T00:10:02.492Z,14.20
2019-04-16T00:12:30.844Z,15.43
2019-04-16T00:14:58.526Z,15.43
2019-04-16T00:17:24.863Z,13.80
2019-04-16T00:19:51.343Z,17.10
2019-04-16T00:22:19.683Z,16.97
2019-04-16T00:24:46.951Z,22.20
2019-04-16T00:27:13.299Z,18.17
2019-04-16T00:29:39.988Z,17.97
2019-04-16T00:32:09.683Z,18.43
2019-04-16T00:34:36.184Z,20.83
2019-04-16T00:37:02.614Z,17.97
2019-04-16T00:39:29.091Z,19.37
2019-04-16T00:41:55.505Z,16.80
2019-04-16T00:44:22.015Z,18.10
2019-04-16T00:46:48.363Z,17.63
2019-04-16T00:49:14.826Z,14.77
2019-04-16T00:51:41.270Z,16.67
2019-04-16T00:54:10.460Z,15.90
2019-04-16T00:56:36.085Z,17.03
2019-04-16T00:59:02.455Z,16.40
2019-04-16T01:01:29.014Z,15.90
2019-04-16T01:03:55.466Z,15.87
2019-04-16T01:06:21.833Z,16.83
2019-04-16T01:08:54.900Z,15.37
2019-04-16T01:11:16.642Z,14.53
2019-04-16T01:13:43.599Z,15.40
2019-04-16T01:16:09.965Z,14.97
2019-04-16T01:18:38.772Z,14.30
2019-04-16T01:21:04.691Z,16.93
2019-04-16T01:23:31.145Z,17.60
2019-04-16T01:25:57.621Z,16.93
2019-04-16T01:28:25.959Z,15.53
2019-04-16T01:30:54.320Z,14.47
2019-04-16T01:33:22.711Z,13.10
2019-04-16T01:35:51.482Z,13.30
2019-04-16T01:38:21.043Z,16.83
2019-04-16T01:40:50.268Z,15.00
2019-04-16T01:43:17.323Z,15.37
2019-04-16T01:45:43.794Z,17.07
2019-04-16T01:48:10.154Z,15.37
2019-04-16T01:50:36.515Z,20.37
2019-04-16T01:53:02.877Z,16.40
2019-04-16T01:55:29.342Z,15.80
2019-04-16T01:57:55.899Z,16.03
2019-04-16T02:00:22.346Z,19.00
2019-04-16T02:02:48.712Z,17.20
2019-04-16T02:05:15.167Z,17.27
2019-04-16T02:07:41.640Z,16.57
2019-04-16T02:10:08.194Z,19.17
2019-04-16T02:12:34.755Z,15.13
2019-04-16T02:15:01.320Z,17.57
2019-04-16T02:17:27.819Z,18.67
2019-04-16T02:19:54.231Z,16.53
2019-04-16T02:22:20.799Z,17.77
2019-04-16T02:24:47.783Z,17.60
2019-04-16T02:27:14.924Z,19.03
2019-04-16T02:29:41.276Z,15.47
2019-04-16T02:32:07.743Z,19.77
2019-04-16T02:34:34.225Z,19.40
2019-04-16T02:37:02.911Z,16.23
2019-04-16T02:39:47.341Z,18.67
2019-04-16T02:41:58.444Z,18.63
2019-04-16T02:44:25.169Z,16.37
2019-04-16T02:46:51.639Z,18.40
2019-04-16T02:49:23.271Z,16.30
2019-04-16T02:51:48.254Z,18.60
2019-04-16T02:54:16.847Z,21.63
2019-04-16T02:56:51.595Z,16.57
2019-04-16T02:59:15.477Z,19.93
2019-04-16T03:01:43.884Z,22.33
2019-04-16T03:04:12.232Z,18.40
2019-04-16T03:06:38.687Z,18.93
2019-04-16T03:09:05.380Z,17.80
2019-04-16T03:11:33.606Z,18.27
2019-04-16T03:13:59.992Z,21.53
2019-04-16T03:16:28.344Z,16.67
2019-04-16T03:18:56.631Z,17.80
2019-04-16T03:21:24.563Z,18.13
2019-04-16T03:23:51.357Z,19.23
2019-04-16T03:26:18.253Z,16.40
2019-04-16T03:28:44.978Z,17.70
2019-04-16T03:31:19.524Z,18.77
2019-04-16T03:33:48.303Z,16.23
2019-04-16T03:36:08.195Z,18.33
2019-04-16T03:38:36.968Z,18.87
2019-04-16T03:41:02.843Z,19.03
2019-04-16T03:43:29.520Z,16.73
2019-04-16T03:45:58.014Z,17.73
2019-04-16T03:48:24.453Z,17.27
2019-04-16T03:50:51.176Z,17.30
2019-04-16T03:53:18.380Z,16.13
2019-04-16T03:55:45.000Z,16.40
2019-04-16T03:58:11.385Z,22.27
2019-04-16T04:00:43.760Z,19.87
2019-04-16T04:03:06.234Z,19.97
2019-04-16T04:05:34.908Z,17.07
2019-04-16T04:08:01.296Z,20.13
2019-04-16T04:10:30.664Z,22.80
2019-04-16T04:12:55.903Z,19.93
2019-04-16T04:15:25.914Z,18.43
2019-04-16T04:17:50.724Z,22.20
2019-04-16T04:20:18.136Z,20.60
2019-04-16T04:22:45.651Z,19.80
2019-04-16T04:25:12.028Z,18.57
2019-04-16T04:27:38.524Z,19.60
2019-04-16T04:30:05.843Z,21.20
2019-04-16T04:32:35.416Z,20.47
2019-04-16T04:35:00.887Z,24.07
2019-04-16T04:37:30.962Z,22.37
2019-04-16T04:39:55.727Z,22.87
2019-04-16T04:42:22.279Z,21.43
2019-04-16T04:44:48.663Z,21.07
2019-04-16T04:47:15.543Z,19.47
2019-04-16T04:49:43.282Z,22.60
2019-04-16T04:52:13.643Z,20.70
2019-04-16T04:54:37.910Z,18.50
2019-04-16T04:57:04.380Z,21.53
2019-04-16T04:59:30.755Z,18.47
2019-04-16T05:01:57.319Z,18.63
2019-04-16T05:04:28.264Z,19.07
2019-04-16T05:06:57.308Z,17.77
2019-04-16T05:09:24.504Z,21.67
2019-04-16T05:11:51.076Z,18.93
2019-04-16T05:14:17.515Z,18.13
2019-04-16T05:16:43.884Z,18.97
2019-04-16T05:19:13.781Z,19.70
2019-04-16T05:21:38.703Z,17.20
2019-04-16T05:24:05.146Z,16.60
2019-04-16T05:26:33.517Z,16.60
2019-04-16T05:29:01.668Z,17.17
2019-04-16T05:31:30.984Z,17.27
2019-04-16T05:34:01.917Z,18.20
2019-04-16T05:36:24.775Z,18.10
2019-04-16T05:38:55.532Z,16.27
2019-04-16T05:41:22.286Z,16.57
2019-04-16T05:43:47.761Z,16.83
2019-04-16T05:46:16.463Z,17.30
2019-04-16T05:48:42.817Z,19.70
2019-04-16T05:51:09.187Z,16.13
2019-04-16T05:53:37.348Z,19.23
2019-04-16T05:56:07.328Z,16.00
2019-04-16T05:58:33.880Z,16.60
2019-04-16T06:01:02.196Z,20.57
2019-04-16T06:03:28.543Z,18.43
2019-04-16T06:05:56.365Z,19.63
2019-04-16T06:08:23.359Z,21.80
2019-04-16T06:10:51.132Z,16.27
2019-04-16T06:13:19.596Z,19.13
2019-04-16T06:15:50.250Z,17.13
2019-04-16T06:18:18.474Z,19.53
2019-04-16T06:20:52.528Z,21.40
2019-04-16T06:23:17.063Z,19.80
2019-04-16T06:25:45.316Z,18.67
2019-04-16T06:28:13.727Z,20.07
2019-04-16T06:30:44.999Z,17.73
2019-04-16T06:33:13.387Z,19.07
2019-04-16T06:35:43.492Z,19.57
2019-04-16T06:38:11.999Z,20.33
2019-04-16T06:40:40.346Z,18.03
2019-04-16T06:43:08.739Z,17.03
2019-04-16T06:45:37.951Z,16.97
2019-04-16T06:48:06.275Z,15.77
2019-04-16T06:50:39.555Z,17.10
2019-04-16T06:53:04.719Z,18.90
2019-04-16T06:55:36.042Z,21.47
2019-04-16T06:58:03.232Z,16.00
2019-04-16T07:00:35.073Z,16.27
2019-04-16T07:03:02.889Z,15.37
2019-04-16T07:05:34.224Z,15.67
2019-04-16T07:08:02.611Z,15.20
2019-04-16T07:10:43.773Z,15.80
2019-04-16T07:12:59.537Z,20.40
2019-04-16T07:15:28.606Z,18.03
2019-04-16T07:17:54.726Z,19.27
2019-04-16T07:20:21.287Z,17.23
2019-04-16T07:22:52.752Z,19.13
2019-04-16T07:25:16.390Z,16.97
2019-04-16T07:27:45.106Z,20.87
2019-04-16T07:30:13.612Z,19.57
2019-04-16T07:32:42.067Z,15.80
2019-04-16T07:35:16.223Z,18.00
2019-04-16T07:37:44.723Z,14.10
2019-04-16T07:40:13.076Z,16.70
2019-04-16T07:42:51.841Z,21.07
2019-04-16T07:45:12.475Z,16.23
2019-04-16T07:47:40.978Z,14.53
2019-04-16T07:50:09.348Z,21.83
2019-04-16T07:52:38.989Z,14.80
2019-04-16T07:55:07.923Z,14.77
2019-04-16T07:57:34.281Z,17.47
2019-04-16T08:00:00.744Z,15.17
2019-04-16T08:02:27.204Z,19.87
2019-04-16T08:04:53.578Z,21.33
2019-04-16T08:07:21.188Z,15.03
2019-04-16T08:09:47.804Z,18.43
2019-04-16T08:12:29.443Z,14.73
2019-04-16T08:14:42.515Z,16.47
2019-04-16T08:17:08.872Z,15.03
2019-04-16T08:19:37.063Z,18.60
2019-04-16T08:22:03.749Z,13.53
2019-04-16T08:24:32.059Z,13.90
2019-04-16T08:26:58.620Z,16.15
2019-04-16T08:29:26.610Z,18.05
2019-04-16T08:31:53.244Z,15.18
2019-04-16T08:34:19.734Z,12.10
2019-04-16T08:36:46.308Z,13.93
2019-04-16T08:39:14.665Z,16.97
2019-04-16T08:41:41.232Z,14.47
2019-04-16T08:44:10.032Z,13.50
2019-04-16T08:46:35.950Z,13.48
2019-04-16T08:49:02.803Z,15.60
2019-04-16T08:51:31.129Z,14.20
2019-04-16T08:53:58.028Z,19.57
2019-04-16T08:56:24.397Z,12.90
2019-04-16T08:58:50.748Z,12.82
2019-04-16T09:01:23.361Z,13.28
2019-04-16T09:03:47.387Z,11.57
2019-04-16T09:06:14.309Z,13.65
2019-04-16T09:08:42.711Z,12.90
2019-04-16T09:11:21.822Z,15.78
2019-04-16T09:13:41.144Z,14.20
2019-04-16T09:16:10.275Z,13.60
2019-04-16T09:18:37.954Z,14.20
2019-04-16T09:21:06.940Z,12.35
2019-04-16T09:23:32.779Z,11.38
2019-04-16T09:26:13.057Z,12.50
2019-04-16T09:28:32.044Z,13.55
2019-04-16T09:31:00.465Z,12.15
2019-04-16T09:33:30.383Z,12.00
2019-04-16T09:35:59.023Z,16.93
2019-04-16T09:38:27.318Z,13.10
2019-04-16T09:40:55.580Z,14.93
2019-04-16T09:43:23.872Z,13.80
2019-04-16T09:45:50.220Z,13.60
2019-04-16T09:48:16.588Z,13.30
2019-04-16T09:50:46.604Z,14.20
2019-04-16T09:53:11.215Z,13.45
2019-04-16T09:55:37.659Z,13.18
2019-04-16T09:58:06.993Z,16.40
2019-04-16T10:00:35.375Z,13.62
2019-04-16T10:03:03.768Z,12.95
2019-04-16T10:05:30.257Z,11.63
2019-04-16T10:07:57.141Z,12.50
2019-04-16T10:10:24.307Z,11.53
2019-04-16T10:12:51.940Z,11.75
2019-04-16T10:15:18.661Z,12.37
2019-04-16T10:17:45.161Z,16.70
2019-04-16T10:20:11.617Z,10.55
2019-04-16T10:22:37.980Z,13.20
2019-04-16T10:25:06.741Z,12.93
2019-04-16T10:27:35.024Z,12.28
2019-04-16T10:30:01.584Z,11.60
2019-04-16T10:32:28.723Z,12.80
2019-04-16T10:34:55.237Z,10.35
2019-04-16T10:37:21.783Z,13.80
2019-04-16T10:39:50.059Z,17.70
2019-04-16T10:42:18.311Z,13.08
2019-04-16T10:44:46.587Z,9.98
2019-04-16T10:47:16.661Z,10.90
2019-04-16T10:49:44.258Z,10.63
2019-04-16T10:52:12.526Z,11.25
2019-04-16T10:54:41.004Z,11.33
2019-04-16T10:57:10.463Z,11.80
2019-04-16T10:59:37.020Z,11.40
2019-04-16T11:02:09.787Z,11.57
2019-04-16T11:04:35.651Z,11.35
2019-04-16T11:07:04.194Z,10.80
2019-04-16T11:09:30.659Z,10.38
2019-04-16T11:11:57.009Z,10.88
2019-04-16T11:14:23.492Z,13.60
2019-04-16T11:16:50.528Z,9.98
2019-04-16T11:19:17.015Z,12.43
2019-04-16T11:21:43.547Z,9.88
2019-04-16T11:24:10.111Z,10.88
2019-04-16T11:26:36.816Z,12.35
2019-04-16T11:29:03.815Z,11.10
2019-04-16T11:31:30.338Z,10.68
2019-04-16T11:33:57.986Z,12.28
2019-04-16T11:36:24.635Z,11.97
2019-04-16T11:38:51.192Z,10.50
2019-04-16T11:41:17.638Z,10.68
2019-04-16T11:43:44.187Z,11.43
2019-04-16T11:46:10.802Z,9.70
2019-04-16T11:48:38.166Z,10.20
2019-04-16T11:51:04.786Z,10.50
2019-04-16T11:53:31.236Z,11.43
2019-04-16T11:55:57.803Z,10.98
2019-04-16T11:58:26.124Z,13.88
2019-04-16T12:00:54.523Z,11.48
2019-04-16T12:03:22.928Z,10.88
2019-04-16T12:05:49.475Z,11.65
2019-04-16T12:08:17.708Z,10.82
2019-04-16T12:10:46.095Z,10.68
2019-04-16T12:13:14.349Z,12.28
2019-04-16T12:15:42.778Z,10.58
2019-04-16T12:18:11.325Z,11.57
2019-04-16T12:20:39.658Z,11.63
2019-04-16T12:23:08.107Z,43.68
2019-04-16T12:25:36.809Z,12.68
2019-04-16T12:28:07.195Z,10.38
2019-04-16T12:30:35.355Z,10.25
2019-04-16T12:33:07.723Z,9.65
2019-04-16T12:35:34.726Z,10.10
2019-04-16T12:38:03.814Z,12.40
2019-04-16T12:40:32.259Z,9.75
2019-04-16T12:43:00.512Z,11.90
2019-04-16T12:45:28.836Z,10.82
2019-04-16T12:47:58.959Z,10.70
2019-04-16T12:50:27.452Z,11.85
2019-04-16T12:52:55.931Z,10.40
2019-04-16T12:55:24.364Z,10.63
2019-04-16T12:57:51.776Z,9.03
2019-04-16T13:00:18.571Z,10.15
2019-04-16T13:02:46.865Z,9.83
2019-04-16T13:05:15.415Z,11.30
2019-04-16T13:07:41.937Z,11.43
2019-04-16T13:10:10.355Z,10.35
2019-04-16T13:12:38.749Z,10.00
2019-04-16T13:15:07.297Z,10.25
2019-04-16T13:17:35.651Z,9.98
2019-04-16T13:20:05.211Z,11.03
2019-04-16T13:22:33.619Z,11.18
2019-04-16T13:25:00.077Z,10.35
2019-04-16T13:27:28.508Z,9.98
2019-04-16T13:29:54.955Z,9.60
2019-04-16T13:32:21.329Z,10.95
2019-04-16T13:34:47.818Z,10.68
2019-04-16T13:37:14.199Z,10.65
2019-04-16T13:39:42.551Z,10.35
2019-04-16T13:42:09.004Z,10.23
2019-04-16T13:44:37.738Z,9.75
2019-04-16T13:47:05.708Z,9.58
2019-04-16T13:49:34.097Z,8.93
2019-04-16T13:52:00.697Z,9.28
2019-04-16T13:54:34.132Z,10.80
2019-04-16T13:56:59.287Z,11.10
2019-04-16T13:59:30.356Z,10.80
2019-04-16T14:01:59.107Z,10.55
2019-04-16T14:04:30.293Z,10.23
2019-04-16T14:06:54.065Z,9.70
2019-04-16T14:09:20.460Z,10.78
2019-04-16T14:11:50.966Z,10.15
2019-04-16T14:14:18.171Z,8.78
2019-04-16T14:16:44.761Z,8.08
2019-04-16T14:19:11.521Z,8.40
2019-04-16T14:21:38.057Z,8.68
2019-04-16T14:24:04.526Z,8.70
2019-04-16T14:26:31.075Z,9.03
2019-04-16T14:28:57.547Z,9.23
2019-04-16T14:31:25.592Z,9.58
2019-04-16T14:33:53.875Z,8.75
2019-04-16T14:36:20.825Z,10.60
2019-04-16T14:38:51.752Z,8.95
2019-04-16T14:41:18.095Z,10.18
2019-04-16T14:43:46.386Z,8.48
2019-04-16T14:46:12.846Z,8.73
2019-04-16T14:48:45.213Z,8.03
2019-04-16T14:51:07.936Z,7.90
2019-04-16T14:53:36.267Z,7.80
2019-04-16T14:56:04.616Z,7.78
2019-04-16T14:58:32.890Z,7.83
2019-04-16T15:01:01.151Z,8.75
2019-04-16T15:03:29.412Z,11.55
2019-04-16T15:05:57.783Z,8.28
2019-04-16T15:08:26.055Z,7.30
2019-04-16T15:10:54.328Z,8.03
2019-04-16T15:13:22.585Z,8.68
2019-04-16T15:16:05.600Z,7.58
2019-04-16T15:18:21.055Z,9.18
2019-04-16T15:20:49.331Z,9.05
2019-04-16T15:23:17.684Z,9.33
2019-04-16T15:25:46.020Z,8.65
2019-04-16T15:28:14.288Z,9.65
2019-04-16T15:30:42.673Z,8.03
2019-04-16T15:33:10.917Z,7.45
2019-04-16T15:35:39.240Z,7.97
2019-04-16T15:38:07.585Z,12.07
2019-04-16T15:40:39.326Z,10.32
2019-04-16T15:43:06.050Z,9.45
2019-04-16T15:45:34.354Z,8.85
2019-04-16T15:48:02.631Z,8.58
2019-04-16T15:50:35.214Z,11.30
2019-04-16T15:53:01.035Z,10.15
2019-04-16T15:55:29.319Z,9.08
2019-04-16T15:57:57.679Z,8.35
2019-04-16T16:00:25.948Z,8.55
2019-04-16T16:02:54.197Z,7.72
2019-04-16T16:05:22.471Z,9.28
2019-04-16T16:07:56.027Z,8.25
2019-04-16T16:10:21.089Z,8.90
2019-04-16T16:12:47.523Z,9.65
2019-04-16T16:15:13.979Z,7.92
2019-04-16T16:17:40.367Z,7.92
2019-04-16T16:20:10.281Z,8.50
2019-04-16T16:22:36.000Z,8.75
2019-04-16T16:25:05.640Z,9.05
2019-04-16T16:27:31.435Z,7.42
2019-04-16T16:29:57.787Z,8.93
2019-04-16T16:32:24.176Z,9.70
2019-04-16T16:34:50.688Z,8.80
2019-04-16T16:37:17.120Z,8.75
2019-04-16T16:39:43.672Z,10.75
2019-04-16T16:42:10.039Z,7.22
2019-04-16T16:44:36.391Z,9.68
2019-04-16T16:47:05.223Z,9.60
2019-04-16T16:49:32.160Z,9.53
2019-04-16T16:52:00.528Z,8.63
2019-04-16T16:54:27.581Z,8.75
2019-04-16T16:56:54.972Z,8.35
2019-04-16T16:59:23.224Z,9.65
2019-04-16T17:01:54.391Z,8.05
2019-04-16T17:04:21.710Z,8.63
2019-04-16T17:06:48.074Z,9.18
2019-04-16T17:09:16.322Z,9.03
2019-04-16T17:11:43.807Z,8.28
2019-04-16T17:14:10.468Z,10.10
2019-04-16T17:16:36.915Z,9.50
2019-04-16T17:19:03.279Z,9.03
2019-04-16T17:21:29.628Z,7.47
2019-04-16T17:23:56.100Z,8.25
2019-04-16T17:26:22.456Z,10.32
2019-04-16T17:28:48.822Z,9.65
2019-04-16T17:31:15.371Z,8.88
2019-04-16T17:33:41.843Z,8.45
2019-04-16T17:36:08.720Z,9.15
2019-04-16T17:38:36.716Z,9.68
2019-04-16T17:41:05.573Z,7.42
2019-04-16T17:43:33.967Z,8.40
2019-04-16T17:46:02.319Z,5.95
2019-04-16T17:48:30.614Z,10.63
2019-04-16T17:50:58.984Z,8.25
2019-04-16T17:53:27.369Z,7.45
2019-04-16T17:55:55.625Z,7.97
2019-04-16T17:58:24.252Z,5.53
2019-04-16T18:00:54.542Z,6.50
2019-04-16T18:03:22.832Z,7.12
2019-04-16T18:05:51.083Z,7.17
2019-04-16T18:08:19.500Z,5.55
2019-04-16T18:10:47.752Z,6.95
2019-04-16T18:13:16.157Z,7.70
2019-04-16T18:15:44.440Z,7.70
2019-04-16T18:18:16.910Z,8.78
2019-04-16T18:20:56.714Z,12.63
2019-04-16T18:23:13.402Z,10.35
2019-04-16T18:25:55.098Z,10.30
2019-04-16T18:28:12.084Z,16.50
2019-04-16T18:30:40.624Z,12.17
2019-04-16T18:33:08.904Z,15.30
2019-04-16T18:35:37.353Z,20.10
2019-04-16T18:38:05.703Z,21.63
2019-04-16T18:40:33.984Z,16.23
2019-04-16T18:43:02.332Z,14.83
2019-04-16T18:45:33.591Z,10.90
2019-04-16T18:48:05.373Z,10.97
2019-04-16T18:50:30.307Z,10.40
2019-04-16T18:52:56.756Z,11.57
2019-04-16T18:55:23.224Z,9.50
2019-04-16T18:57:49.603Z,25.80
2019-04-16T19:00:18.003Z,17.20
2019-04-16T19:02:44.444Z,11.20
2019-04-16T19:05:10.827Z,12.17
2019-04-16T19:07:37.273Z,8.40
2019-04-16T19:10:04.760Z,10.50
2019-04-16T19:12:31.305Z,12.30
2019-04-16T19:14:57.877Z,9.50
2019-04-16T19:17:24.427Z,12.80
2019-04-16T19:19:51.018Z,14.27
2019-04-16T19:22:17.467Z,13.93
2019-04-16T19:24:43.916Z,13.70
2019-04-16T19:27:10.308Z,12.13
2019-04-16T19:29:36.663Z,10.87
2019-04-16T19:32:03.374Z,8.60
2019-04-16T19:34:29.871Z,14.83
2019-04-16T19:37:00.169Z,10.90
2019-04-16T19:39:24.688Z,12.83
2019-04-16T19:41:52.956Z,11.97
2019-04-16T19:44:19.337Z,9.67
2019-04-16T19:46:50.715Z,11.00
2019-04-16T19:49:14.008Z,10.87
2019-04-16T19:51:41.296Z,11.20
2019-04-16T19:54:08.375Z,13.63
2019-04-16T19:56:34.848Z,12.77
2019-04-16T19:59:01.539Z,12.33
2019-04-16T20:01:27.985Z,10.90
2019-04-16T20:03:54.544Z,10.60
2019-04-16T20:06:25.342Z,9.37
2019-04-16T20:08:49.364Z,16.33
2019-04-16T20:11:20.400Z,12.43
2019-04-16T20:13:44.137Z,10.37
2019-04-16T20:16:10.580Z,13.00
2019-04-16T20:18:50.408Z,14.30
2019-04-16T20:21:05.558Z,15.97
2019-04-16T20:23:32.220Z,14.70
2019-04-16T20:26:00.078Z,19.70
2019-04-16T20:28:26.984Z,26.93
2019-04-16T20:31:00.416Z,18.97
2019-04-16T20:33:21.700Z,13.37
2019-04-16T20:35:50.528Z,10.23
2019-04-16T20:38:17.101Z,12.33
2019-04-16T20:40:43.621Z,11.40
2019-04-16T20:43:10.000Z,12.47
2019-04-16T20:45:36.447Z,9.67
2019-04-16T20:48:02.826Z,9.50
2019-04-16T20:50:29.276Z,8.33
2019-04-16T20:52:55.735Z,7.93
2019-04-16T20:55:22.185Z,9.70
2019-04-16T20:57:48.547Z,9.47
2019-04-16T21:00:16.907Z,13.87
2019-04-16T21:02:43.377Z,11.07
2019-04-16T21:05:21.635Z,10.17
2019-04-16T21:07:38.075Z,8.47
2019-04-16T21:10:06.115Z,8.80
2019-04-16T21:12:32.668Z,9.63
2019-04-16T21:14:59.048Z,10.37
2019-04-16T21:17:25.504Z,13.83
2019-04-16T21:19:51.969Z,11.47
2019-04-16T21:22:18.336Z,17.33
2019-04-16T21:24:46.523Z,14.03
2019-04-16T21:27:13.067Z,16.17
2019-04-16T21:29:39.531Z,10.13
2019-04-16T21:32:10.291Z,11.97
2019-04-16T21:34:38.254Z,15.17
2019-04-16T21:37:09.958Z,12.77
2019-04-16T21:39:36.962Z,14.57
2019-04-16T21:42:03.726Z,15.23
2019-04-16T21:44:30.298Z,12.33
2019-04-16T21:46:58.211Z,17.07
2019-04-16T21:49:37.839Z,16.30
2019-04-16T21:51:55.511Z,23.00
2019-04-16T21:54:21.960Z,16.20
2019-04-16T21:56:48.412Z,12.13
2019-04-16T21:59:14.791Z,12.00
2019-04-16T22:01:43.139Z,12.57
2019-04-16T22:04:14.422Z,12.93
2019-04-16T22:06:39.655Z,13.80
2019-04-16T22:09:06.182Z,10.40
2019-04-16T22:11:32.667Z,12.30
2019-04-16T22:13:59.021Z,14.90
2019-04-16T22:16:26.622Z,12.27
2019-04-16T22:18:53.731Z,11.60
2019-04-16T22:21:20.199Z,12.17
2019-04-16T22:23:50.170Z,12.80
2019-04-16T22:26:15.132Z,13.20
2019-04-16T22:28:44.324Z,14.03
2019-04-16T22:31:09.946Z,13.87
2019-04-16T22:33:36.299Z,14.57
2019-04-16T22:36:03.223Z,12.43
2019-04-16T22:38:31.188Z,17.37
2019-04-16T22:40:59.487Z,13.13
2019-04-16T22:43:25.934Z,14.63
2019-04-16T22:45:54.328Z,14.10
2019-04-16T22:48:20.681Z,11.70
2019-04-16T22:50:47.139Z,12.90
2019-04-16T22:53:16.931Z,14.97
2019-04-16T22:55:42.693Z,15.77
2019-04-16T22:58:11.122Z,12.10
2019-04-16T23:00:44.113Z,12.33
2019-04-16T23:03:07.862Z,13.77
2019-04-16T23:05:34.295Z,12.43
2019-04-16T23:08:00.768Z,14.73
2019-04-16T23:10:27.117Z,11.60
2019-04-16T23:12:53.606Z,11.77
2019-04-16T23:15:20.141Z,11.17
2019-04-16T23:17:46.881Z,13.37
2019-04-16T23:20:28.182Z,11.37
2019-04-16T23:22:43.624Z,12.57
2019-04-16T23:25:10.407Z,14.97
2019-04-16T23:27:38.117Z,11.23
2019-04-16T23:30:04.940Z,13.30
2019-04-16T23:32:31.307Z,15.03
2019-04-16T23:34:57.681Z,17.43
2019-04-16T23:37:24.115Z,16.87
2019-04-16T23:39:50.499Z,15.27
2019-04-16T23:42:19.073Z,13.87
2019-04-16T23:44:47.115Z,15.33
2019-04-16T23:47:15.424Z,13.70
2019-04-16T23:49:43.774Z,13.67
2019-04-16T23:52:12.047Z,15.87
2019-04-16T23:54:40.698Z,13.10
2019-04-16T23:57:10.891Z,15.73
2019-04-16T23:59:39.368Z,13.50
